Flight Track Log - Related Links

Times and Time Zones

All times are in EDT time to prevent confusion due to time zone crossing. See the KAL9276 flight status page for this flight to view local times or setup timezone preferences in your user account.

Time Position Orientation Groundspeed Altitude Reporting Facility
EDT Latitude Longitude Course Direction KTS MPH feet Rate Location/Type
Mon 02:02:17 AM 20.8040 -86.8900 North 524 603 35,000  Level FlightAware ADS-B
Mon 02:02:57 AM 20.9010 -86.8760 North 524 603 35,000  Level FlightAware ADS-B
Mon 02:03:37 AM 20.9990 -86.8620 North 526 605 35,000  Level FlightAware ADS-B
Mon 02:04:22 AM 21.1080 -86.8400 11° North 530 610 35,000  Level FlightAware ADS-B
Mon 02:05:02 AM 21.2030 -86.8190 12° North 532 612 35,000  Level FlightAware ADS-B
Mon 02:05:47 AM 21.3160 -86.7930 12° North 532 612 35,000  Level FlightAware ADS-B
Mon 02:06:27 AM 21.4120 -86.7710 12° North 532 612 35,000  Level FlightAware ADS-B
Mon 02:07:07 AM 21.5090 -86.7480 12° North 532 612 35,000  Level FlightAware ADS-B
Mon 02:07:52 AM 21.6150 -86.7240 12° North 531 611 35,000  Level FlightAware ADS-B
Mon 02:08:32 AM 21.7120 -86.7020 12° North 530 610 35,000  Level FlightAware ADS-B
Mon 02:09:12 AM 21.8070 -86.6810 12° North 529 609 35,000  Level FlightAware ADS-B
Mon 02:09:57 AM 21.9190 -86.6550 12° North 528 608 35,000  Level FlightAware ADS-B
Mon 02:10:37 AM 22.0140 -86.6320 13° North 528 608 35,000  Level FlightAware ADS-B
Mon 02:11:22 AM 22.1200 -86.6080 12° North 528 608 35,000  Level FlightAware ADS-B
Mon 02:12:07 AM 22.2290 -86.5830 12° North 528 608 35,000  Level FlightAware ADS-B
Mon 02:12:47 AM 22.3270 -86.5600 12° North 529 609 35,000  Level FlightAware ADS-B
Mon 02:13:27 AM 22.4210 -86.5380 12° North 529 609 35,000  Level FlightAware ADS-B
Mon 02:14:12 AM 22.5280 -86.5130 12° North 529 609 35,000  Level FlightAware ADS-B
Mon 02:14:52 AM 22.6230 -86.4920 12° North 528 608 35,000  Level FlightAware ADS-B
Mon 02:15:37 AM 22.7350 -86.4650 13° North 528 608 35,000  Level FlightAware ADS-B
Mon 02:16:07 AM 22.8060 -86.4490 12° North 529 609 35,000  Level FlightAware ADS-B
Mon 02:16:47 AM 22.9030 -86.4260 12° North 529 609 35,000  Level FlightAware ADS-B
Mon 02:17:32 AM 23.0080 -86.4020 12° North 530 610 35,000  Level FlightAware ADS-B
Mon 02:18:17 AM 23.1170 -86.3760 12° North 529 609 35,000  Level FlightAware ADS-B
Mon 02:18:57 AM 23.2150 -86.3530 12° North 529 609 35,000  Level FlightAware ADS-B
Mon 02:19:37 AM 23.3120 -86.3300 12° North 528 608 35,000  Level FlightAware ADS-B
Mon 02:20:22 AM 23.4090 -86.3070 12° North 528 608 35,000  Level FlightAware ADS-B
Mon 02:21:02 AM 23.5140 -86.2830 12° North 528 608 35,000  Level FlightAware ADS-B
Mon 02:21:42 AM 23.6080 -86.2610 12° North 528 608 35,000  Level FlightAware ADS-B
Mon 02:22:22 AM 23.7000 -86.2390 12° North 529 609 35,000  Level FlightAware ADS-B
Mon 02:23:12 AM 23.8250 -86.2090 12° North 531 611 35,000  Level FlightAware ADS-B
Mon 02:23:52 AM 23.9200 -86.1870 12° North 530 610 35,000  Level FlightAware ADS-B
Mon 02:24:32 AM 24.0100 -86.1630 14° North 534 615 35,000  Level FlightAware ADS-B
Mon 02:25:17 AM 24.1190 -86.1110 24° Northeast 546 628 35,000  Level FlightAware ADS-B
Mon 02:25:47 AM 24.1820 -86.0720 29° Northeast 546 628 35,000  Level FlightAware ADS-B
Mon 02:26:37 AM 24.2900 -86.0060 29° Northeast 546 628 35,000  Level FlightAware ADS-B
Mon 02:27:22 AM 24.3950 -85.9380 31° Northeast 545 627 35,000  Level FlightAware ADS-B
Mon 02:28:17 AM 24.5180 -85.8630 29° Northeast 544 626 35,000  Level FlightAware ADS-B
Mon 02:29:02 AM 24.6070 -85.8080 29° Northeast 543 625 35,000  Level FlightAware ADS-B
Mon 02:29:42 AM 24.6910 -85.7550 30° Northeast 542 624 35,000  Level FlightAware ADS-B
Mon 02:30:22 AM 24.7660 -85.7100 29° Northeast 542 624 35,000  Level FlightAware ADS-B
Mon 02:31:02 AM 24.8400 -85.6640 29° Northeast 542 624 35,000  Level FlightAware ADS-B
Mon 02:31:42 AM 24.9150 -85.6190 29° Northeast 542 624 35,000  Level FlightAware ADS-B
Mon 02:32:32 AM 25.0080 -85.5620 29° Northeast 542 624 35,000  Level FlightAware ADS-B
Mon 02:33:12 AM 25.0820 -85.5160 29° Northeast 542 624 35,000  Level FlightAware ADS-B
Mon 02:33:52 AM 25.1570 -85.4700 29° Northeast 542 624 35,000  Level FlightAware ADS-B
Mon 02:34:32 AM 25.2320 -85.4250 28° Northeast 542 624 35,000  Level FlightAware ADS-B
Mon 02:35:12 AM 25.3060 -85.3790 29° Northeast 542 624 35,000  Level FlightAware ADS-B
Mon 02:36:02 AM 25.3990 -85.3220 29° Northeast 542 624 35,000  Level FlightAware ADS-B
Mon 02:36:42 AM 25.4740 -85.2760 29° Northeast 542 624 35,000  Level FlightAware ADS-B
Mon 02:37:22 AM 25.5490 -85.2300 29° Northeast 542 624 35,000  Level FlightAware ADS-B
Mon 02:38:02 AM 25.6230 -85.1850 29° Northeast 542 624 35,000  Level FlightAware ADS-B
Mon 02:38:42 AM 25.6980 -85.1390 29° Northeast 542 624 35,000  Level FlightAware ADS-B
Mon 02:39:21 AM 25.5828 -84.5722 29° Northeast 557 641 35,000  Level Miami Center
Mon 02:40:24 AM 25.5917 -84.4028 87° East 562 647 35,000  Level Miami Center
Mon 02:41:21 AM 25.6111 -84.2269 83° East 562 647 35,000  Level Miami Center
Mon 02:42:21 AM 25.6239 -84.0550 85° East 562 647 35,000  Level Miami Center
Mon 02:43:21 AM 25.6344 -83.8808 86° East 562 647 35,000  Level Miami Center
Mon 02:44:23 AM 25.6425 -83.7086 87° East 556 640 35,000  Level Miami Center
Mon 02:45:22 AM 25.6528 -83.5319 86° East 556 640 35,000 -573 Level Miami Center
Mon 02:51:22 AM 25.7010 -82.5050 86° East 522 601 31,000 -805 Descending FlightAware ADS-B
Mon 02:51:57 AM 25.7050 -82.4170 87° East 513 590 29,700 -1,976 Descending FlightAware ADS-B
Mon 02:52:47 AM 25.7110 -82.2810 87° East 492 566 28,200 -1,267 Descending FlightAware ADS-B
Mon 02:53:27 AM 25.7140 -82.1920 88° East 486 559 27,800 -1,835 Descending FlightAware ADS-B
Mon 02:54:12 AM 25.7200 -82.0750 87° East 457 526 25,600 -2,329 Descending FlightAware ADS-B
Mon 02:54:52 AM 25.7240 -81.9860 87° East 444 511 24,500 -1,800 Descending FlightAware ADS-B
Mon 02:55:32 AM 25.7280 -81.8940 87° East 431 496 23,200 -1,835 Descending FlightAware ADS-B
Mon 02:56:17 AM 25.7320 -81.7960 87° East 419 482 21,900 -1,800 Descending FlightAware ADS-B
Mon 02:57:02 AM 25.7360 -81.7000 87° East 408 470 20,500 -1,835 Descending FlightAware ADS-B
Mon 02:57:42 AM 25.7390 -81.6170 88° East 401 461 19,300 -1,765 Descending FlightAware ADS-B
Mon 02:58:27 AM 25.7430 -81.5260 87° East 392 451 18,000 -1,835 Descending FlightAware ADS-B
Mon 02:59:07 AM 25.7460 -81.4480 88° East 387 445 16,700 -1,875 Descending FlightAware ADS-B
Mon 02:59:47 AM 25.7490 -81.3680 88° East 380 437 15,500 -750 Descending FlightAware ADS-B
Mon 03:00:27 AM 25.7490 -81.2980 90° East 380 437 15,700 150 Climbing FlightAware ADS-B
Mon 03:01:07 AM 25.7500 -81.2310 89° East 380 437 15,700 -2,400 Level FlightAware ADS-B
Mon 03:02:22 AM 25.7590 -81.0810 86° East 354 407 11,100 -2,817 Descending FlightAware ADS-B
Mon 03:03:02 AM 25.7620 -81.0070 87° East 339 390 10,300 -1,029 Descending FlightAware ADS-B
Mon 03:03:32 AM 25.7640 -80.9550 88° East 318 366 9,900 -436 Descending FlightAware ADS-B
Mon 03:03:57 AM 25.7650 -80.9190 88° East 302 348 9,900 -545 Level FlightAware ADS-B
Mon 03:04:27 AM 25.7670 -80.8720 87° East 297 342 9,400 -1,300 Descending FlightAware ADS-B
Mon 03:04:57 AM 25.7680 -80.8260 89° East 298 343 8,600 -1,745 Descending FlightAware ADS-B
Mon 03:05:22 AM 25.7700 -80.7820 87° East 300 345 7,800 -1,650 Descending FlightAware ADS-B
Mon 03:05:37 AM 25.7700 -80.7600 90° East 300 345 7,500 -1,200 Descending FlightAware ADS-B
Mon 03:06:07 AM 25.7720 -80.7140 87° East 294 338 6,900 -1,091 Descending FlightAware ADS-B
Mon 03:06:32 AM 25.7710 -80.6790 92° East 282 325 6,500 -873 Descending FlightAware ADS-B
Mon 03:07:02 AM 25.7720 -80.6400 88° East 267 307 6,100 -933 Descending FlightAware ADS-B
Mon 03:07:17 AM 25.7730 -80.6210 87° East 264 304 5,800 -1,050 Descending FlightAware ADS-B
Mon 03:07:42 AM 25.7740 -80.5930 88° East 250 288 5,400 -1,418 Descending FlightAware ADS-B
Mon 03:08:12 AM 25.7760 -80.5500 87° East 234 269 4,500 -1,800 Descending FlightAware ADS-B
Mon 03:08:42 AM 25.7780 -80.5150 86° East 233 268 3,600 -1,636 Descending FlightAware ADS-B
Mon 03:09:07 AM 25.7790 -80.4840 88° East 227 261 3,000 -1,309 Descending FlightAware ADS-B
Mon 03:09:37 AM 25.7800 -80.4500 88° East 223 257 2,400 -1,320 Descending FlightAware ADS-B
Mon 03:09:57 AM 25.7810 -80.4280 87° East 220 253 1,900 -1,200 Descending FlightAware ADS-B
Mon 03:10:32 AM 25.7830 -80.3870 87° East 184 212 1,300 -943 Descending FlightAware ADS-B
Mon 03:11:07 AM 25.7840 -80.3600 88° East 171 197 800 -847 Descending FlightAware ADS-B
Mon 03:11:57 AM 25.7860 -80.3160 87° East 170 196 100 -840 Descending FlightAware ADS-B

Login

Don't have an account? Register now (free) for customized features, flight alerts, and more!